createdAt,value
2023-01-21T00:01:10.542Z,58.13
2023-01-21T00:03:37.735Z,53.67
2023-01-21T00:06:05.289Z,53.13
2023-01-21T00:08:32.202Z,49.30
2023-01-21T00:11:06.761Z,51.67
2023-01-21T00:13:34.728Z,54.60
2023-01-21T00:16:02.268Z,51.93
2023-01-21T00:18:30.160Z,49.83
2023-01-21T00:20:57.623Z,43.57
2023-01-21T00:23:25.204Z,49.20
2023-01-21T00:26:03.664Z,44.37
2023-01-21T00:28:33.331Z,43.43
2023-01-21T00:31:02.816Z,41.83
2023-01-21T00:33:30.352Z,40.10
2023-01-21T00:36:03.813Z,41.83
2023-01-21T00:38:31.796Z,38.60
2023-01-21T00:41:04.214Z,38.00
2023-01-21T00:43:31.471Z,38.87
2023-01-21T00:45:58.434Z,33.23
2023-01-21T00:48:25.068Z,35.07
2023-01-21T00:50:52.141Z,38.47
2023-01-21T00:53:19.248Z,37.47
2023-01-21T00:55:45.914Z,34.20
2023-01-21T00:58:12.641Z,37.37
2023-01-21T01:00:39.345Z,33.03
2023-01-21T01:03:06.118Z,35.63
2023-01-21T01:05:33.466Z,34.60
2023-01-21T01:08:00.167Z,32.57
2023-01-21T01:10:26.738Z,32.83
2023-01-21T01:12:54.025Z,35.50
2023-01-21T01:15:21.287Z,37.97
2023-01-21T01:17:47.956Z,35.67
2023-01-21T01:20:14.900Z,32.17
2023-01-21T01:22:41.681Z,31.90
2023-01-21T01:25:08.564Z,33.93
2023-01-21T01:27:35.168Z,33.43
2023-01-21T01:30:01.799Z,29.10
2023-01-21T01:32:28.499Z,33.93
2023-01-21T01:34:55.286Z,33.30
2023-01-21T01:37:22.055Z,30.03
2023-01-21T01:39:48.584Z,32.10
2023-01-21T01:42:16.091Z,30.73
2023-01-21T01:44:58.006Z,33.20
2023-01-21T01:47:59.861Z,32.53
2023-01-21T01:50:32.704Z,33.03
2023-01-21T01:53:01.266Z,36.63
2023-01-21T01:55:35.644Z,35.33
2023-01-21T01:58:06.490Z,31.97
2023-01-21T02:00:34.107Z,31.53
2023-01-21T02:03:20.269Z,33.33
2023-01-21T02:05:47.695Z,34.13
2023-01-21T02:08:14.891Z,31.53
2023-01-21T02:10:41.671Z,32.13
2023-01-21T02:13:09.712Z,32.00
2023-01-21T02:15:50.375Z,29.67
2023-01-21T02:18:43.789Z,28.23
2023-01-21T02:21:56.376Z,31.73
2023-01-21T02:25:02.253Z,30.83
2023-01-21T02:28:12.072Z,33.73
2023-01-21T02:30:56.032Z,35.87
2023-01-21T02:33:42.177Z,33.97
2023-01-21T02:36:50.962Z,32.27
2023-01-21T02:39:25.806Z,31.50
2023-01-21T02:42:13.569Z,34.47
2023-01-21T02:44:42.832Z,33.13
2023-01-21T02:47:18.434Z,32.30
2023-01-21T02:49:52.405Z,35.37
2023-01-21T02:52:20.992Z,29.97
2023-01-21T02:54:51.261Z,31.93
2023-01-21T02:57:29.540Z,32.60
2023-01-21T02:59:58.978Z,37.37
2023-01-21T03:02:46.881Z,34.17
2023-01-21T03:05:22.966Z,32.73
2023-01-21T03:07:55.936Z,32.20
2023-01-21T03:10:31.897Z,33.37
2023-01-21T03:13:07.845Z,33.87
2023-01-21T03:16:09.748Z,32.10
2023-01-21T03:18:49.471Z,37.33
2023-01-21T03:21:21.569Z,39.57
2023-01-21T03:23:51.380Z,34.23
2023-01-21T03:26:24.453Z,38.17
2023-01-21T03:28:55.071Z,34.30
2023-01-21T03:31:27.024Z,36.10
2023-01-21T03:33:57.252Z,35.57
2023-01-21T03:36:36.130Z,37.80
2023-01-21T03:39:26.401Z,31.47
2023-01-21T03:41:54.436Z,37.30
2023-01-21T03:44:21.942Z,34.77
2023-01-21T03:47:11.061Z,35.70
2023-01-21T03:49:46.546Z,37.33
2023-01-21T03:52:14.369Z,36.17
2023-01-21T03:54:41.543Z,31.77
2023-01-21T03:57:08.230Z,34.77
2023-01-21T03:59:35.786Z,38.43
2023-01-21T04:02:02.483Z,38.47
2023-01-21T04:04:29.084Z,40.37
2023-01-21T04:06:55.638Z,45.80
2023-01-21T04:09:22.997Z,49.93
2023-01-21T04:11:49.585Z,45.27
2023-01-21T04:14:16.128Z,46.00
2023-01-21T04:16:42.921Z,50.73
2023-01-21T04:19:10.647Z,50.30
2023-01-21T04:21:37.793Z,48.33
2023-01-21T04:24:04.698Z,48.83
2023-01-21T04:26:31.522Z,50.43
2023-01-21T04:28:58.349Z,48.47
2023-01-21T04:31:25.266Z,59.10
2023-01-21T04:33:51.936Z,51.50
2023-01-21T04:36:18.766Z,53.60
2023-01-21T04:38:45.631Z,54.90
2023-01-21T04:41:12.226Z,60.77
2023-01-21T04:43:39.685Z,57.33
2023-01-21T04:46:07.069Z,65.37
2023-01-21T04:48:34.059Z,67.10
2023-01-21T04:51:00.803Z,59.80
2023-01-21T04:53:27.514Z,62.87
2023-01-21T04:55:54.906Z,60.47
2023-01-21T04:58:21.689Z,63.73
2023-01-21T05:00:48.738Z,61.23
2023-01-21T05:03:16.198Z,61.67
2023-01-21T05:05:42.809Z,64.60
2023-01-21T05:08:10.138Z,61.23
2023-01-21T05:10:36.873Z,60.93
2023-01-21T05:13:05.043Z,64.97
2023-01-21T05:15:31.964Z,64.40
2023-01-21T05:17:58.561Z,69.17
2023-01-21T05:20:25.249Z,64.10
2023-01-21T05:22:52.675Z,68.17
2023-01-21T05:25:19.777Z,67.33
2023-01-21T05:27:52.389Z,67.47
2023-01-21T05:30:19.415Z,68.50
2023-01-21T05:32:50.474Z,67.30
2023-01-21T05:35:19.234Z,62.47
2023-01-21T05:37:47.740Z,71.53
2023-01-21T05:40:16.514Z,69.83
2023-01-21T05:42:44.437Z,64.43
2023-01-21T05:45:12.250Z,67.67
2023-01-21T05:47:38.960Z,68.60
2023-01-21T05:50:06.653Z,67.87
2023-01-21T05:52:33.222Z,59.60
2023-01-21T05:55:02.565Z,63.67
2023-01-21T05:57:30.398Z,61.23
2023-01-21T05:59:57.202Z,58.43
2023-01-21T06:02:25.375Z,65.30
2023-01-21T06:04:52.739Z,60.73
2023-01-21T06:07:19.421Z,62.93
2023-01-21T06:09:46.168Z,59.80
2023-01-21T06:12:13.010Z,52.70
2023-01-21T06:14:41.026Z,55.03
2023-01-21T06:17:07.711Z,56.43
2023-01-21T06:19:34.524Z,58.90
2023-01-21T06:22:01.809Z,56.13
2023-01-21T06:24:29.097Z,57.07
2023-01-21T06:26:56.807Z,56.50
2023-01-21T06:29:24.464Z,57.43
2023-01-21T06:31:51.447Z,57.00
2023-01-21T06:34:18.277Z,56.10
2023-01-21T06:36:44.861Z,58.47
2023-01-21T06:39:12.323Z,51.00
2023-01-21T06:41:39.114Z,53.43
2023-01-21T06:44:06.213Z,55.00
2023-01-21T06:46:32.890Z,50.97
2023-01-21T06:48:59.792Z,54.83
2023-01-21T06:51:31.868Z,53.90
2023-01-21T06:53:58.764Z,50.43
2023-01-21T06:56:25.391Z,50.80
2023-01-21T06:58:51.949Z,52.50
2023-01-21T07:01:19.382Z,52.03
2023-01-21T07:03:46.056Z,48.53
2023-01-21T07:06:15.516Z,45.40
2023-01-21T07:08:42.140Z,47.60
2023-01-21T07:11:08.826Z,46.17
2023-01-21T07:13:36.159Z,43.17
2023-01-21T07:16:04.083Z,46.33
2023-01-21T07:18:32.839Z,41.43
2023-01-21T07:20:59.842Z,42.30
2023-01-21T07:23:26.684Z,42.97
2023-01-21T07:25:53.259Z,41.77
2023-01-21T07:28:20.098Z,42.87
2023-01-21T07:30:47.076Z,48.20
2023-01-21T07:33:15.113Z,46.77
2023-01-21T07:35:42.845Z,39.83
2023-01-21T07:38:10.328Z,44.50
2023-01-21T07:40:37.040Z,49.37
2023-01-21T07:43:04.110Z,45.67
2023-01-21T07:45:30.902Z,46.27
2023-01-21T07:47:57.730Z,44.07
2023-01-21T07:50:24.355Z,49.43
2023-01-21T07:52:54.859Z,51.50
2023-01-21T07:55:22.338Z,50.53
2023-01-21T07:57:48.914Z,49.47
2023-01-21T08:00:16.661Z,48.10
2023-01-21T08:02:43.595Z,51.27
2023-01-21T08:05:11.019Z,48.30
2023-01-21T08:07:37.640Z,49.07
2023-01-21T08:10:05.318Z,51.70
2023-01-21T08:12:33.255Z,53.87
2023-01-21T08:14:59.847Z,50.43
2023-01-21T08:17:27.400Z,52.10
2023-01-21T08:19:55.921Z,57.80
2023-01-21T08:22:23.904Z,52.40
2023-01-21T08:24:51.256Z,52.40
2023-01-21T08:27:18.466Z,51.00
2023-01-21T08:29:45.266Z,54.83
2023-01-21T08:32:12.083Z,57.23
2023-01-21T08:34:38.743Z,60.70
2023-01-21T08:37:05.482Z,57.50
2023-01-21T08:39:32.711Z,55.67
2023-01-21T08:41:59.399Z,79.07
2023-01-21T08:44:26.246Z,64.07
2023-01-21T08:46:52.986Z,62.33
2023-01-21T08:49:20.447Z,61.10
2023-01-21T08:51:48.039Z,48.90
2023-01-21T08:54:15.083Z,48.90
2023-01-21T08:56:41.816Z,76.57
2023-01-21T08:59:08.808Z,56.60
2023-01-21T09:01:41.571Z,50.20
2023-01-21T09:04:19.563Z,57.63
2023-01-21T09:06:46.181Z,68.83
2023-01-21T09:09:12.838Z,59.43
2023-01-21T09:11:39.397Z,48.30
2023-01-21T09:14:06.710Z,50.93
2023-01-21T09:16:33.448Z,49.10
2023-01-21T09:19:01.195Z,54.97
2023-01-21T09:21:30.977Z,51.43
2023-01-21T09:23:58.949Z,47.90
2023-01-21T09:26:26.628Z,52.93
2023-01-21T09:28:58.380Z,47.97
2023-01-21T09:31:28.495Z,42.97
2023-01-21T09:34:03.672Z,45.87
2023-01-21T09:36:32.589Z,37.40
2023-01-21T09:39:00.445Z,39.10
2023-01-21T09:41:39.349Z,43.57
2023-01-21T09:44:10.234Z,32.40
2023-01-21T09:46:52.053Z,40.93
2023-01-21T09:49:25.902Z,38.80
2023-01-21T09:52:03.051Z,36.30
2023-01-21T09:54:32.786Z,35.13
2023-01-21T09:57:23.940Z,32.27
2023-01-21T10:00:08.083Z,38.43
2023-01-21T10:02:56.393Z,33.37
2023-01-21T10:05:33.949Z,32.87
2023-01-21T10:08:17.952Z,30.30
2023-01-21T10:11:05.298Z,29.80
2023-01-21T10:14:03.909Z,28.97
2023-01-21T10:16:55.699Z,32.50
2023-01-21T10:19:48.428Z,28.80
2023-01-21T10:22:25.032Z,42.60
2023-01-21T10:25:03.069Z,32.77
2023-01-21T10:27:35.876Z,32.40
2023-01-21T10:30:19.343Z,28.40
2023-01-21T10:32:50.929Z,27.55
2023-01-21T10:35:19.689Z,26.90
2023-01-21T10:37:57.915Z,25.33
2023-01-21T10:40:45.644Z,25.33
2023-01-21T10:43:28.176Z,26.83
2023-01-21T10:46:16.072Z,23.45
2023-01-21T10:48:52.341Z,25.60
2023-01-21T10:51:27.585Z,23.87
2023-01-21T10:54:11.601Z,26.63
2023-01-21T10:56:51.989Z,26.63
2023-01-21T10:59:27.598Z,25.90
2023-01-21T11:02:02.779Z,23.93
2023-01-21T11:04:29.890Z,24.93
2023-01-21T11:07:02.791Z,27.07
2023-01-21T11:09:34.185Z,25.63
2023-01-21T11:12:01.052Z,26.73
2023-01-21T11:14:28.471Z,30.27
2023-01-21T11:16:57.001Z,25.13
2023-01-21T11:19:30.478Z,27.63
2023-01-21T11:21:59.549Z,30.90
2023-01-21T11:24:28.075Z,26.00
2023-01-21T11:27:00.756Z,30.33
2023-01-21T11:29:40.027Z,29.13
2023-01-21T11:32:18.247Z,28.20
2023-01-21T11:34:47.616Z,25.80
2023-01-21T11:37:28.047Z,27.97
2023-01-21T11:40:05.408Z,29.57
2023-01-21T11:42:32.623Z,29.00
2023-01-21T11:45:06.452Z,27.40
2023-01-21T11:47:49.642Z,26.50
2023-01-21T11:50:28.474Z,27.83
2023-01-21T11:53:11.582Z,28.30
2023-01-21T11:56:00.007Z,23.40
2023-01-21T11:58:33.933Z,25.57
2023-01-21T12:01:04.178Z,22.40
2023-01-21T12:03:36.908Z,23.10
2023-01-21T12:06:05.006Z,20.83
2023-01-21T12:08:35.130Z,19.97
2023-01-21T12:11:04.462Z,21.13
2023-01-21T12:13:49.326Z,15.77
2023-01-21T12:16:32.232Z,15.88
2023-01-21T12:19:18.249Z,16.60
2023-01-21T12:21:49.922Z,15.83
2023-01-21T12:24:31.397Z,15.30
2023-01-21T12:27:27.244Z,16.40
2023-01-21T12:30:19.451Z,17.05
2023-01-21T12:32:51.619Z,18.40
2023-01-21T12:35:30.149Z,15.73
2023-01-21T12:38:06.639Z,16.67
2023-01-21T12:41:00.071Z,17.23
2023-01-21T12:43:35.114Z,16.60
2023-01-21T12:46:14.032Z,15.77
2023-01-21T12:49:18.455Z,14.67
2023-01-21T12:51:51.260Z,15.53
2023-01-21T12:54:37.800Z,14.60
2023-01-21T12:57:16.722Z,16.07
2023-01-21T12:59:56.479Z,14.53
2023-01-21T13:02:32.168Z,15.27
2023-01-21T13:05:09.101Z,14.90
2023-01-21T13:07:53.824Z,16.17
2023-01-21T13:10:24.197Z,17.37
2023-01-21T13:12:58.738Z,13.97
2023-01-21T13:15:33.447Z,17.00
2023-01-21T13:18:04.489Z,16.57
2023-01-21T13:20:36.194Z,16.80
2023-01-21T13:23:26.864Z,15.43
2023-01-21T13:26:04.092Z,17.63
2023-01-21T13:28:44.759Z,20.07
2023-01-21T13:31:14.523Z,16.07
2023-01-21T13:34:06.152Z,16.83
2023-01-21T13:36:50.344Z,16.67
2023-01-21T13:39:26.954Z,16.20
2023-01-21T13:42:21.552Z,18.30
2023-01-21T13:45:16.307Z,17.33
2023-01-21T13:47:53.880Z,16.37
2023-01-21T13:50:24.110Z,18.10
2023-01-21T13:53:07.534Z,18.47
2023-01-21T13:56:07.395Z,20.50
2023-01-21T13:59:04.250Z,17.13
2023-01-21T14:01:52.109Z,15.40
2023-01-21T14:04:27.830Z,15.95
2023-01-21T14:07:06.572Z,15.32
2023-01-21T14:09:40.758Z,15.38
2023-01-21T14:12:30.110Z,16.50
2023-01-21T14:15:16.892Z,15.32
2023-01-21T14:17:46.881Z,14.65
2023-01-21T14:20:19.944Z,15.63
2023-01-21T14:23:18.913Z,24.15
2023-01-21T14:26:06.593Z,19.50
2023-01-21T14:29:05.290Z,17.37
2023-01-21T14:31:43.804Z,16.67
2023-01-21T14:34:16.297Z,16.75
2023-01-21T14:37:01.609Z,15.53
2023-01-21T14:39:40.875Z,16.00
2023-01-21T14:42:13.307Z,15.10
2023-01-21T14:44:48.690Z,13.15
2023-01-21T14:47:30.429Z,11.48
2023-01-21T14:49:59.310Z,11.77
2023-01-21T14:52:30.381Z,12.27
2023-01-21T14:54:57.233Z,11.63
2023-01-21T14:57:35.556Z,11.40
2023-01-21T15:00:11.858Z,11.45
2023-01-21T15:02:42.798Z,13.25
2023-01-21T15:05:33.211Z,12.20
2023-01-21T15:08:08.937Z,12.70
2023-01-21T15:10:38.858Z,13.70
2023-01-21T15:13:23.059Z,14.02
2023-01-21T15:16:19.071Z,14.32
2023-01-21T15:19:07.908Z,14.38
2023-01-21T15:21:40.725Z,16.48
2023-01-21T15:24:24.553Z,16.58
2023-01-21T15:27:23.123Z,18.87
2023-01-21T15:30:00.494Z,16.97
2023-01-21T15:32:49.425Z,16.57
2023-01-21T15:35:35.419Z,20.10
2023-01-21T15:38:14.171Z,19.53
2023-01-21T15:40:50.989Z,20.97
2023-01-21T15:43:20.532Z,22.90
2023-01-21T15:46:03.594Z,20.50
2023-01-21T15:48:48.182Z,21.60
2023-01-21T15:51:20.816Z,23.40
2023-01-21T15:54:06.679Z,24.73
2023-01-21T15:56:33.207Z,26.33
2023-01-21T15:59:11.845Z,25.43
2023-01-21T16:01:43.051Z,29.53
2023-01-21T16:04:40.570Z,29.07
2023-01-21T16:07:25.678Z,26.70
2023-01-21T16:10:02.142Z,30.10
2023-01-21T16:12:34.702Z,34.17
2023-01-21T16:15:17.716Z,29.30
2023-01-21T16:17:59.313Z,30.33
2023-01-21T16:20:26.226Z,33.83
2023-01-21T16:22:57.777Z,34.37
2023-01-21T16:25:25.752Z,34.03
2023-01-21T16:27:54.294Z,34.33
2023-01-21T16:30:25.611Z,38.17
2023-01-21T16:33:09.018Z,35.63
2023-01-21T16:35:57.229Z,35.63
2023-01-21T16:38:29.547Z,37.20
2023-01-21T16:41:08.479Z,36.43
2023-01-21T16:43:37.557Z,38.80
2023-01-21T16:46:11.065Z,41.43
2023-01-21T16:48:37.775Z,39.67
2023-01-21T16:51:04.941Z,36.00
2023-01-21T16:53:31.576Z,41.83
2023-01-21T16:55:59.391Z,42.90
2023-01-21T16:58:34.258Z,47.50
2023-01-21T17:01:11.308Z,47.37
2023-01-21T17:03:39.286Z,46.03
2023-01-21T17:06:30.733Z,46.17
2023-01-21T17:09:05.064Z,53.40
2023-01-21T17:11:33.622Z,46.07
2023-01-21T17:14:09.507Z,51.57
2023-01-21T17:16:39.437Z,51.80
2023-01-21T17:19:09.223Z,56.53
2023-01-21T17:21:43.257Z,53.73
2023-01-21T17:24:30.370Z,59.10
2023-01-21T17:27:08.778Z,55.90
2023-01-21T17:29:35.740Z,52.77
2023-01-21T17:32:06.023Z,54.13
2023-01-21T17:34:38.547Z,65.72
2023-01-21T17:37:42.844Z,61.53
2023-01-21T17:40:30.212Z,67.03
2023-01-21T17:42:58.917Z,57.47
2023-01-21T17:45:42.432Z,65.13
2023-01-21T17:48:31.052Z,64.67
2023-01-21T17:51:12.343Z,63.23
2023-01-21T17:53:46.314Z,66.93
2023-01-21T17:56:13.365Z,69.30
2023-01-21T17:58:52.768Z,66.53
2023-01-21T18:01:21.190Z,67.23
2023-01-21T18:03:47.994Z,72.97
2023-01-21T18:06:22.367Z,79.43
2023-01-21T18:08:50.794Z,82.53
2023-01-21T18:11:17.955Z,67.50
2023-01-21T18:13:44.774Z,66.47
2023-01-21T18:16:11.405Z,79.77
2023-01-21T18:18:39.286Z,73.97
2023-01-21T18:21:06.313Z,66.10
2023-01-21T18:23:33.182Z,70.60
2023-01-21T18:25:59.936Z,68.40
2023-01-21T18:28:30.448Z,65.93
2023-01-21T18:30:58.012Z,60.03
2023-01-21T18:33:24.878Z,55.50
2023-01-21T18:35:52.775Z,56.27
2023-01-21T18:38:27.073Z,63.60
2023-01-21T18:40:57.550Z,54.33
2023-01-21T18:43:26.290Z,54.10
2023-01-21T18:45:54.408Z,48.60
2023-01-21T18:48:27.637Z,54.83
2023-01-21T18:50:54.710Z,46.10
2023-01-21T18:53:21.538Z,54.00
2023-01-21T18:55:50.837Z,52.40
2023-01-21T18:58:17.672Z,43.13
2023-01-21T19:00:44.502Z,47.80
2023-01-21T19:03:15.378Z,48.57
2023-01-21T19:05:44.551Z,45.27
2023-01-21T19:08:17.581Z,45.97
2023-01-21T19:10:44.476Z,39.63
2023-01-21T19:13:22.389Z,41.00
2023-01-21T19:15:49.457Z,39.17
2023-01-21T19:18:18.069Z,38.97
2023-01-21T19:20:44.932Z,36.83
2023-01-21T19:23:17.977Z,37.53
2023-01-21T19:25:54.250Z,37.00
2023-01-21T19:28:22.214Z,41.17
2023-01-21T19:30:50.553Z,44.17
2023-01-21T19:33:17.488Z,34.63
2023-01-21T19:35:45.600Z,36.00
2023-01-21T19:38:18.746Z,33.07
2023-01-21T19:40:48.487Z,33.47
2023-01-21T19:43:17.162Z,33.70
2023-01-21T19:45:44.923Z,29.87
2023-01-21T19:48:17.433Z,28.30
2023-01-21T19:50:44.515Z,29.60
2023-01-21T19:53:15.317Z,27.30
2023-01-21T19:55:43.976Z,27.57
2023-01-21T19:58:19.955Z,24.27
2023-01-21T20:01:00.975Z,24.27
2023-01-21T20:03:30.487Z,21.87
2023-01-21T20:06:01.598Z,21.73
2023-01-21T20:08:40.945Z,22.40
2023-01-21T20:11:15.716Z,20.30
2023-01-21T20:13:42.555Z,19.37
2023-01-21T20:16:16.922Z,18.73
2023-01-21T20:18:46.251Z,18.43
2023-01-21T20:21:12.989Z,17.37
2023-01-21T20:23:39.937Z,16.90
2023-01-21T20:26:11.017Z,17.10
2023-01-21T20:28:46.721Z,16.77
2023-01-21T20:31:13.563Z,16.70
2023-01-21T20:33:41.531Z,18.00
2023-01-21T20:36:21.086Z,16.03
2023-01-21T20:38:47.890Z,15.50
2023-01-21T20:41:14.617Z,16.73
2023-01-21T20:43:57.433Z,15.67
2023-01-21T20:46:28.117Z,14.47
2023-01-21T20:48:56.012Z,15.97
2023-01-21T20:51:23.102Z,17.10
2023-01-21T20:53:52.118Z,16.60
2023-01-21T20:56:23.880Z,18.27
2023-01-21T20:58:50.679Z,17.43
2023-01-21T21:01:20.433Z,17.40
2023-01-21T21:03:47.868Z,16.00
2023-01-21T21:06:23.021Z,16.97
2023-01-21T21:08:53.917Z,19.53
2023-01-21T21:11:21.361Z,16.93
2023-01-21T21:13:52.741Z,16.27
2023-01-21T21:16:27.656Z,16.67
2023-01-21T21:18:56.587Z,17.57
2023-01-21T21:21:24.181Z,17.07
2023-01-21T21:23:52.330Z,15.73
2023-01-21T21:26:29.085Z,17.87
2023-01-21T21:29:00.340Z,18.70
2023-01-21T21:31:34.003Z,20.17
2023-01-21T21:34:00.703Z,19.43
2023-01-21T21:36:27.433Z,18.67
2023-01-21T21:41:54.562Z,18.00
2023-01-21T21:44:22.789Z,18.73
2023-01-21T21:49:48.623Z,19.97
2023-01-21T21:52:20.704Z,18.17
2023-01-21T21:54:47.384Z,18.90
2023-01-21T21:57:14.171Z,17.77
2023-01-21T21:59:42.451Z,20.67
2023-01-21T22:02:29.215Z,17.87
2023-01-21T22:04:55.948Z,17.60
2023-01-21T22:07:22.618Z,17.27
2023-01-21T22:09:49.439Z,18.40
2023-01-21T22:12:16.264Z,17.00
2023-01-21T22:14:43.423Z,17.80
2023-01-21T22:17:10.582Z,17.80
2023-01-21T22:19:37.883Z,16.93
2023-01-21T22:22:04.710Z,18.83
2023-01-21T22:24:31.359Z,16.73
2023-01-21T22:26:58.262Z,17.13
2023-01-21T22:29:24.992Z,16.83
2023-01-21T22:31:51.932Z,17.50
2023-01-21T22:34:18.654Z,15.03
2023-01-21T22:36:47.771Z,20.93
2023-01-21T22:39:14.536Z,18.13
2023-01-21T22:41:41.299Z,17.43
2023-01-21T22:44:07.968Z,19.70
2023-01-21T22:46:34.778Z,17.77
2023-01-21T22:49:01.436Z,18.67
2023-01-21T22:51:28.670Z,18.13
2023-01-21T22:53:56.171Z,17.80
2023-01-21T22:56:35.631Z,16.77
2023-01-21T22:59:11.197Z,16.07
2023-01-21T23:01:38.117Z,15.27
2023-01-21T23:04:04.847Z,17.80
2023-01-21T23:06:31.575Z,17.20
2023-01-21T23:08:59.544Z,14.13
2023-01-21T23:11:26.301Z,13.70
2023-01-21T23:13:54.452Z,13.20
2023-01-21T23:16:21.861Z,15.03
2023-01-21T23:18:49.165Z,13.00
2023-01-21T23:21:21.492Z,12.43
2023-01-21T23:23:48.919Z,13.47
2023-01-21T23:26:18.846Z,12.60
2023-01-21T23:28:45.574Z,11.70
2023-01-21T23:31:17.437Z,11.43
2023-01-21T23:33:48.223Z,10.60
2023-01-21T23:36:15.439Z,11.37
2023-01-21T23:38:42.341Z,9.50
2023-01-21T23:41:11.812Z,10.87
2023-01-21T23:43:39.163Z,10.60
2023-01-21T23:46:08.091Z,10.43
2023-01-21T23:48:34.933Z,9.17
2023-01-21T23:51:06.012Z,12.63
2023-01-21T23:53:33.415Z,14.63
2023-01-21T23:56:24.275Z,12.27
2023-01-21T23:58:51.239Z,9.47
